sensor_id;sensor_type;location;lat;lon;timestamp;pressure;altitude;pressure_sealevel;temperature;humidity
15914;BME280;8055;51.930;8.840;2023-03-23T00:01:49;75156.38;;;-145.72;100.00
15914;BME280;8055;51.930;8.840;2023-03-23T00:04:17;75148.09;;;-145.72;100.00
15914;BME280;8055;51.930;8.840;2023-03-23T00:06:43;75141.91;;;-145.72;100.00
15914;BME280;8055;51.930;8.840;2023-03-23T00:09:12;75146.03;;;-145.72;100.00
15914;BME280;8055;51.930;8.840;2023-03-23T00:11:38;75143.97;;;-145.72;100.00
15914;BME280;8055;51.930;8.840;2023-03-23T00:14:04;75148.09;;;-145.72;100.00
15914;BME280;8055;51.930;8.840;2023-03-23T00:16:31;75154.31;;;-145.72;100.00
15914;BME280;8055;51.930;8.840;2023-03-23T00:19:09;75150.16;;;-145.72;100.00
15914;BME280;8055;51.930;8.840;2023-03-23T00:21:37;75148.09;;;-145.72;100.00
15914;BME280;8055;51.930;8.840;2023-03-23T00:24:15;75141.91;;;-145.72;100.00
15914;BME280;8055;51.930;8.840;2023-03-23T00:26:43;75146.03;;;-145.72;100.00
15914;BME280;8055;51.930;8.840;2023-03-23T00:29:20;75143.97;;;-145.72;100.00
15914;BME280;8055;51.930;8.840;2023-03-23T00:31:49;75141.91;;;-145.72;100.00
15914;BME280;8055;51.930;8.840;2023-03-23T00:34:19;75146.03;;;-145.72;100.00
15914;BME280;8055;51.930;8.840;2023-03-23T00:36:53;75133.63;;;-145.72;100.00
15914;BME280;8055;51.930;8.840;2023-03-23T00:39:22;75135.69;;;-145.72;100.00
15914;BME280;8055;51.930;8.840;2023-03-23T00:41:50;75139.81;;;-145.72;100.00
15914;BME280;8055;51.930;8.840;2023-03-23T00:44:15;75141.91;;;-145.72;100.00
15914;BME280;8055;51.930;8.840;2023-03-23T00:46:47;75150.16;;;-145.72;100.00
15914;BME280;8055;51.930;8.840;2023-03-23T00:49:19;75143.97;;;-145.72;100.00
15914;BME280;8055;51.930;8.840;2023-03-23T00:51:46;75150.16;;;-145.72;100.00
15914;BME280;8055;51.930;8.840;2023-03-23T00:54:12;75150.16;;;-145.72;100.00
15914;BME280;8055;51.930;8.840;2023-03-23T00:56:38;75152.25;;;-145.72;100.00
15914;BME280;8055;51.930;8.840;2023-03-23T00:59:06;75152.25;;;-145.72;100.00
15914;BME280;8055;51.930;8.840;2023-03-23T01:01:32;75150.16;;;-145.72;100.00
15914;BME280;8055;51.930;8.840;2023-03-23T01:03:58;75141.91;;;-145.72;100.00
15914;BME280;8055;51.930;8.840;2023-03-23T01:06:28;75146.03;;;-145.72;100.00
15914;BME280;8055;51.930;8.840;2023-03-23T01:08:56;75139.81;;;-145.72;100.00
15914;BME280;8055;51.930;8.840;2023-03-23T01:11:22;75135.69;;;-145.72;100.00
15914;BME280;8055;51.930;8.840;2023-03-23T01:13:47;75133.63;;;-145.72;100.00
15914;BME280;8055;51.930;8.840;2023-03-23T01:16:13;75133.63;;;-145.72;100.00
15914;BME280;8055;51.930;8.840;2023-03-23T01:18:39;75135.69;;;-145.72;100.00
15914;BME280;8055;51.930;8.840;2023-03-23T01:21:13;75117.06;;;-145.72;100.00
15914;BME280;8055;51.930;8.840;2023-03-23T01:23:39;75098.44;;;-145.72;100.00
15914;BME280;8055;51.930;8.840;2023-03-23T01:26:17;75102.59;;;-145.72;100.00
15914;BME280;8055;51.930;8.840;2023-03-23T01:28:44;75100.53;;;-145.72;100.00
15914;BME280;8055;51.930;8.840;2023-03-23T01:31:12;75104.66;;;-145.72;100.00
15914;BME280;8055;51.930;8.840;2023-03-23T01:33:38;75106.72;;;-145.72;100.00
15914;BME280;8055;51.930;8.840;2023-03-23T01:36:06;75104.66;;;-145.72;100.00
15914;BME280;8055;51.930;8.840;2023-03-23T01:38:33;75112.94;;;-145.72;100.00
15914;BME280;8055;51.930;8.840;2023-03-23T01:41:00;75110.88;;;-145.72;100.00
15914;BME280;8055;51.930;8.840;2023-03-23T01:43:25;75110.88;;;-145.72;100.00
15914;BME280;8055;51.930;8.840;2023-03-23T01:45:51;75096.38;;;-145.72;100.00
15914;BME280;8055;51.930;8.840;2023-03-23T01:48:37;75102.59;;;-145.72;100.00
15914;BME280;8055;51.930;8.840;2023-03-23T01:51:17;75096.38;;;-145.72;100.00
15914;BME280;8055;51.930;8.840;2023-03-23T01:53:47;75102.59;;;-145.72;100.00
15914;BME280;8055;51.930;8.840;2023-03-23T01:56:16;75092.25;;;-145.72;100.00
15914;BME280;8055;51.930;8.840;2023-03-23T01:58:44;75088.09;;;-145.72;100.00
15914;BME280;8055;51.930;8.840;2023-03-23T02:01:13;75100.53;;;-145.72;100.00
15914;BME280;8055;51.930;8.840;2023-03-23T02:03:43;75104.66;;;-145.72;100.00
15914;BME280;8055;51.930;8.840;2023-03-23T02:06:10;75110.88;;;-145.72;100.00
15914;BME280;8055;51.930;8.840;2023-03-23T02:08:36;75117.06;;;-145.72;100.00
15914;BME280;8055;51.930;8.840;2023-03-23T02:11:17;75119.13;;;-145.72;100.00
15914;BME280;8055;51.930;8.840;2023-03-23T02:13:44;75115.00;;;-145.72;100.00
15914;BME280;8055;51.930;8.840;2023-03-23T02:19:01;75112.94;;;-145.72;100.00
15914;BME280;8055;51.930;8.840;2023-03-23T02:21:48;75112.94;;;-145.72;100.00
15914;BME280;8055;51.930;8.840;2023-03-23T02:27:08;75123.28;;;-145.72;100.00
15914;BME280;8055;51.930;8.840;2023-03-23T02:29:45;75125.34;;;-145.72;100.00
15914;BME280;8055;51.930;8.840;2023-03-23T02:35:21;75121.22;;;-145.72;100.00
15914;BME280;8055;51.930;8.840;2023-03-23T02:37:52;75115.00;;;-145.72;100.00
15914;BME280;8055;51.930;8.840;2023-03-23T02:40:24;75117.06;;;-145.72;100.00
15914;BME280;8055;51.930;8.840;2023-03-23T02:42:53;75117.06;;;-145.72;100.00
15914;BME280;8055;51.930;8.840;2023-03-23T02:45:22;75123.28;;;-145.72;100.00
15914;BME280;8055;51.930;8.840;2023-03-23T02:47:52;75131.56;;;-145.72;100.00
15914;BME280;8055;51.930;8.840;2023-03-23T02:50:22;75133.63;;;-145.72;100.00
15914;BME280;8055;51.930;8.840;2023-03-23T02:52:50;75137.75;;;-145.72;100.00
15914;BME280;8055;51.930;8.840;2023-03-23T02:55:18;75135.69;;;-145.72;100.00
15914;BME280;8055;51.930;8.840;2023-03-23T02:57:45;75143.97;;;-145.72;100.00
15914;BME280;8055;51.930;8.840;2023-03-23T03:00:14;75158.44;;;-145.72;100.00
15914;BME280;8055;51.930;8.840;2023-03-23T03:02:43;75143.97;;;-145.72;100.00
15914;BME280;8055;51.930;8.840;2023-03-23T03:10:37;75129.47;;;-145.72;100.00
15914;BME280;8055;51.930;8.840;2023-03-23T03:13:12;75115.00;;;-145.72;100.00
15914;BME280;8055;51.930;8.840;2023-03-23T03:15:45;75119.13;;;-145.72;100.00
15914;BME280;8055;51.930;8.840;2023-03-23T03:18:24;75125.34;;;-145.72;100.00
15914;BME280;8055;51.930;8.840;2023-03-23T03:21:00;75121.22;;;-145.72;100.00
15914;BME280;8055;51.930;8.840;2023-03-23T03:23:28;75133.63;;;-145.72;100.00
15914;BME280;8055;51.930;8.840;2023-03-23T03:25:55;75137.75;;;-145.72;100.00
15914;BME280;8055;51.930;8.840;2023-03-23T03:28:23;75131.56;;;-145.72;100.00
15914;BME280;8055;51.930;8.840;2023-03-23T03:30:53;75146.03;;;-145.72;100.00
15914;BME280;8055;51.930;8.840;2023-03-23T03:33:21;75141.91;;;-145.72;100.00
15914;BME280;8055;51.930;8.840;2023-03-23T03:35:52;75141.91;;;-145.72;100.00
15914;BME280;8055;51.930;8.840;2023-03-23T03:38:18;75135.69;;;-145.72;100.00
15914;BME280;8055;51.930;8.840;2023-03-23T03:40:44;75125.34;;;-145.72;100.00
15914;BME280;8055;51.930;8.840;2023-03-23T03:43:09;75133.63;;;-145.72;100.00
15914;BME280;8055;51.930;8.840;2023-03-23T03:45:35;75139.81;;;-145.72;100.00
15914;BME280;8055;51.930;8.840;2023-03-23T03:48:00;75127.41;;;-145.72;100.00
15914;BME280;8055;51.930;8.840;2023-03-23T03:50:27;75125.34;;;-145.72;100.00
15914;BME280;8055;51.930;8.840;2023-03-23T03:52:52;75129.47;;;-145.72;100.00
15914;BME280;8055;51.930;8.840;2023-03-23T03:55:18;75127.41;;;-145.72;100.00
15914;BME280;8055;51.930;8.840;2023-03-23T03:57:43;75125.34;;;-145.72;100.00
15914;BME280;8055;51.930;8.840;2023-03-23T04:00:10;75115.00;;;-145.72;100.00
15914;BME280;8055;51.930;8.840;2023-03-23T04:02:43;75115.00;;;-145.72;100.00
15914;BME280;8055;51.930;8.840;2023-03-23T04:05:09;75110.88;;;-145.72;100.00
15914;BME280;8055;51.930;8.840;2023-03-23T04:07:36;75110.88;;;-145.72;100.00
15914;BME280;8055;51.930;8.840;2023-03-23T04:10:07;75108.78;;;-145.72;100.00
15914;BME280;8055;51.930;8.840;2023-03-23T04:12:34;75104.66;;;-145.72;100.00
15914;BME280;8055;51.930;8.840;2023-03-23T04:15:00;75106.72;;;-145.72;100.00
15914;BME280;8055;51.930;8.840;2023-03-23T04:17:25;75104.66;;;-145.72;100.00
15914;BME280;8055;51.930;8.840;2023-03-23T04:19:51;75104.66;;;-145.72;100.00
15914;BME280;8055;51.930;8.840;2023-03-23T04:22:17;75106.72;;;-145.72;100.00
15914;BME280;8055;51.930;8.840;2023-03-23T04:24:43;75098.44;;;-145.72;100.00
15914;BME280;8055;51.930;8.840;2023-03-23T04:27:08;75100.53;;;-145.72;100.00
15914;BME280;8055;51.930;8.840;2023-03-23T04:29:34;75108.78;;;-145.72;100.00
15914;BME280;8055;51.930;8.840;2023-03-23T04:32:00;75104.66;;;-145.72;100.00
15914;BME280;8055;51.930;8.840;2023-03-23T04:34:27;75106.72;;;-145.72;100.00
15914;BME280;8055;51.930;8.840;2023-03-23T04:36:52;75108.78;;;-145.72;100.00
15914;BME280;8055;51.930;8.840;2023-03-23T04:39:18;75117.06;;;-145.72;100.00
15914;BME280;8055;51.930;8.840;2023-03-23T04:41:43;75119.13;;;-145.72;100.00
15914;BME280;8055;51.930;8.840;2023-03-23T04:44:09;75117.06;;;-145.72;100.00
15914;BME280;8055;51.930;8.840;2023-03-23T04:46:35;75119.13;;;-145.72;100.00
15914;BME280;8055;51.930;8.840;2023-03-23T04:49:00;75108.78;;;-145.72;100.00
15914;BME280;8055;51.930;8.840;2023-03-23T04:51:28;75119.13;;;-145.72;100.00
15914;BME280;8055;51.930;8.840;2023-03-23T04:53:54;75119.13;;;-145.72;100.00
15914;BME280;8055;51.930;8.840;2023-03-23T04:56:20;75117.06;;;-145.72;100.00
15914;BME280;8055;51.930;8.840;2023-03-23T04:58:46;75125.34;;;-145.72;100.00
15914;BME280;8055;51.930;8.840;2023-03-23T05:01:12;75123.28;;;-145.72;100.00
15914;BME280;8055;51.930;8.840;2023-03-23T05:03:43;75129.47;;;-145.72;100.00
15914;BME280;8055;51.930;8.840;2023-03-23T05:06:09;75135.69;;;-145.72;100.00
15914;BME280;8055;51.930;8.840;2023-03-23T05:08:34;75115.00;;;-145.72;100.00
15914;BME280;8055;51.930;8.840;2023-03-23T05:11:04;75125.34;;;-145.72;100.00
15914;BME280;8055;51.930;8.840;2023-03-23T05:13:30;75133.63;;;-145.72;100.00
15914;BME280;8055;51.930;8.840;2023-03-23T05:15:56;75137.75;;;-145.72;100.00
15914;BME280;8055;51.930;8.840;2023-03-23T05:18:21;75133.63;;;-145.72;100.00
15914;BME280;8055;51.930;8.840;2023-03-23T05:20:47;75127.41;;;-145.72;100.00
15914;BME280;8055;51.930;8.840;2023-03-23T05:23:14;75133.63;;;-145.72;100.00
15914;BME280;8055;51.930;8.840;2023-03-23T05:25:40;75131.56;;;-145.72;100.00
15914;BME280;8055;51.930;8.840;2023-03-23T05:28:07;75125.34;;;-145.72;100.00
15914;BME280;8055;51.930;8.840;2023-03-23T05:30:33;75127.41;;;-145.72;100.00
15914;BME280;8055;51.930;8.840;2023-03-23T05:32:59;75115.00;;;-145.72;100.00
15914;BME280;8055;51.930;8.840;2023-03-23T05:35:25;75110.88;;;-145.72;100.00
15914;BME280;8055;51.930;8.840;2023-03-23T05:37:50;75110.88;;;-145.72;100.00
15914;BME280;8055;51.930;8.840;2023-03-23T05:40:18;75110.88;;;-145.72;100.00
15914;BME280;8055;51.930;8.840;2023-03-23T05:42:45;75104.66;;;-145.72;100.00
15914;BME280;8055;51.930;8.840;2023-03-23T05:45:11;75104.66;;;-145.72;100.00
15914;BME280;8055;51.930;8.840;2023-03-23T05:47:38;75100.53;;;-145.72;100.00
15914;BME280;8055;51.930;8.840;2023-03-23T05:50:05;75096.38;;;-145.72;100.00
15914;BME280;8055;51.930;8.840;2023-03-23T05:52:32;75092.25;;;-145.72;100.00
15914;BME280;8055;51.930;8.840;2023-03-23T05:55:00;75083.97;;;-145.72;100.00
15914;BME280;8055;51.930;8.840;2023-03-23T05:57:26;75086.03;;;-145.72;100.00
15914;BME280;8055;51.930;8.840;2023-03-23T05:59:52;75092.25;;;-145.72;100.00
15914;BME280;8055;51.930;8.840;2023-03-23T06:02:17;75083.97;;;-145.72;100.00
15914;BME280;8055;51.930;8.840;2023-03-23T06:04:42;75088.09;;;-145.72;100.00
15914;BME280;8055;51.930;8.840;2023-03-23T06:07:08;75079.81;;;-145.72;100.00
15914;BME280;8055;51.930;8.840;2023-03-23T06:09:39;75086.03;;;-145.72;100.00
15914;BME280;8055;51.930;8.840;2023-03-23T06:12:05;75090.19;;;-145.72;100.00
15914;BME280;8055;51.930;8.840;2023-03-23T06:14:31;75083.97;;;-145.72;100.00
15914;BME280;8055;51.930;8.840;2023-03-23T06:16:57;75077.75;;;-145.72;100.00
15914;BME280;8055;51.930;8.840;2023-03-23T06:19:22;75052.94;;;-145.72;100.00
15914;BME280;8055;51.930;8.840;2023-03-23T06:21:48;75055.00;;;-145.72;100.00
15914;BME280;8055;51.930;8.840;2023-03-23T06:24:13;75057.06;;;-145.72;100.00
15914;BME280;8055;51.930;8.840;2023-03-23T06:26:39;75048.78;;;-145.72;100.00
15914;BME280;8055;51.930;8.840;2023-03-23T06:29:07;75048.78;;;-145.72;100.00
15914;BME280;8055;51.930;8.840;2023-03-23T06:31:42;75046.72;;;-145.72;100.00
15914;BME280;8055;51.930;8.840;2023-03-23T06:34:08;75046.72;;;-145.72;100.00
15914;BME280;8055;51.930;8.840;2023-03-23T06:36:35;75040.53;;;-145.72;100.00
15914;BME280;8055;51.930;8.840;2023-03-23T06:39:02;75052.94;;;-145.72;100.00
15914;BME280;8055;51.930;8.840;2023-03-23T06:41:32;75057.06;;;-145.72;100.00
15914;BME280;8055;51.930;8.840;2023-03-23T06:43:59;75042.59;;;-145.72;100.00
15914;BME280;8055;51.930;8.840;2023-03-23T06:46:25;75040.53;;;-145.72;100.00
15914;BME280;8055;51.930;8.840;2023-03-23T06:48:51;75055.00;;;-145.72;100.00
15914;BME280;8055;51.930;8.840;2023-03-23T06:51:17;75052.94;;;-145.72;100.00
15914;BME280;8055;51.930;8.840;2023-03-23T06:53:43;75059.13;;;-145.72;100.00
15914;BME280;8055;51.930;8.840;2023-03-23T06:56:08;75048.78;;;-145.72;100.00
15914;BME280;8055;51.930;8.840;2023-03-23T06:58:34;75046.72;;;-145.72;100.00
15914;BME280;8055;51.930;8.840;2023-03-23T07:00:59;75040.53;;;-145.72;100.00
15914;BME280;8055;51.930;8.840;2023-03-23T07:03:26;75038.44;;;-145.72;100.00
15914;BME280;8055;51.930;8.840;2023-03-23T07:05:53;75032.25;;;-145.72;100.00
15914;BME280;8055;51.930;8.840;2023-03-23T07:08:19;75032.25;;;-145.72;100.00
15914;BME280;8055;51.930;8.840;2023-03-23T07:10:44;75042.59;;;-145.72;100.00
15914;BME280;8055;51.930;8.840;2023-03-23T07:13:10;75046.72;;;-145.72;100.00
15914;BME280;8055;51.930;8.840;2023-03-23T07:15:35;75046.72;;;-145.72;100.00
15914;BME280;8055;51.930;8.840;2023-03-23T07:18:01;75036.38;;;-145.72;100.00
15914;BME280;8055;51.930;8.840;2023-03-23T07:20:26;75042.59;;;-145.72;100.00
15914;BME280;8055;51.930;8.840;2023-03-23T07:22:53;75011.56;;;-145.72;100.00
15914;BME280;8055;51.930;8.840;2023-03-23T07:25:19;74999.16;;;-145.72;100.00
15914;BME280;8055;51.930;8.840;2023-03-23T07:27:45;75005.34;;;-145.72;100.00
15914;BME280;8055;51.930;8.840;2023-03-23T07:30:11;74995.00;;;-145.72;100.00
15914;BME280;8055;51.930;8.840;2023-03-23T07:32:37;74990.88;;;-145.72;100.00
15914;BME280;8055;51.930;8.840;2023-03-23T07:35:02;74982.59;;;-145.72;100.00
15914;BME280;8055;51.930;8.840;2023-03-23T07:37:29;74984.66;;;-145.72;100.00
15914;BME280;8055;51.930;8.840;2023-03-23T07:39:55;74984.66;;;-145.72;100.00
15914;BME280;8055;51.930;8.840;2023-03-23T07:42:20;74980.53;;;-145.72;100.00
15914;BME280;8055;51.930;8.840;2023-03-23T07:44:46;74995.00;;;-145.72;100.00
15914;BME280;8055;51.930;8.840;2023-03-23T07:47:11;74976.38;;;-145.72;100.00
15914;BME280;8055;51.930;8.840;2023-03-23T07:49:36;74974.31;;;-145.72;100.00
15914;BME280;8055;51.930;8.840;2023-03-23T07:52:02;74968.13;;;-145.72;100.00
15914;BME280;8055;51.930;8.840;2023-03-23T07:54:28;74972.25;;;-145.72;100.00
15914;BME280;8055;51.930;8.840;2023-03-23T07:56:53;74976.38;;;-145.72;100.00
15914;BME280;8055;51.930;8.840;2023-03-23T07:59:19;74984.66;;;-145.72;100.00
15914;BME280;8055;51.930;8.840;2023-03-23T08:01:45;74980.53;;;-145.72;100.00
15914;BME280;8055;51.930;8.840;2023-03-23T08:04:11;74984.66;;;-145.72;100.00
15914;BME280;8055;51.930;8.840;2023-03-23T08:06:38;74982.59;;;-145.72;100.00
15914;BME280;8055;51.930;8.840;2023-03-23T08:09:05;74980.53;;;-145.72;100.00
15914;BME280;8055;51.930;8.840;2023-03-23T08:11:37;74984.66;;;-145.72;100.00
15914;BME280;8055;51.930;8.840;2023-03-23T08:14:03;74972.25;;;-145.72;100.00
15914;BME280;8055;51.930;8.840;2023-03-23T08:16:29;74953.63;;;-145.72;100.00
15914;BME280;8055;51.930;8.840;2023-03-23T08:18:54;74951.56;;;-145.72;100.00
15914;BME280;8055;51.930;8.840;2023-03-23T08:21:20;74939.16;;;-145.72;100.00
15914;BME280;8055;51.930;8.840;2023-03-23T08:23:47;74930.88;;;-145.72;100.00
15914;BME280;8055;51.930;8.840;2023-03-23T08:26:12;74926.72;;;-145.72;100.00
15914;BME280;8055;51.930;8.840;2023-03-23T08:28:39;74918.47;;;-145.72;100.00
15914;BME280;8055;51.930;8.840;2023-03-23T08:31:10;74918.47;;;-145.72;100.00
15914;BME280;8055;51.930;8.840;2023-03-23T08:33:36;74910.19;;;-145.72;100.00
15914;BME280;8055;51.930;8.840;2023-03-23T08:36:02;74910.19;;;-145.72;100.00
15914;BME280;8055;51.930;8.840;2023-03-23T08:38:28;74910.19;;;-145.72;100.00
15914;BME280;8055;51.930;8.840;2023-03-23T08:40:58;74893.63;;;-145.72;100.00
15914;BME280;8055;51.930;8.840;2023-03-23T08:43:24;74903.97;;;-145.72;100.00
15914;BME280;8055;51.930;8.840;2023-03-23T08:45:50;74887.44;;;-145.72;100.00
15914;BME280;8055;51.930;8.840;2023-03-23T08:48:16;74895.69;;;-145.72;100.00
15914;BME280;8055;51.930;8.840;2023-03-23T08:50:43;74893.63;;;-145.72;100.00
15914;BME280;8055;51.930;8.840;2023-03-23T08:53:08;74881.22;;;-145.72;100.00
15914;BME280;8055;51.930;8.840;2023-03-23T08:55:34;74868.81;;;-145.72;100.00
15914;BME280;8055;51.930;8.840;2023-03-23T08:57:59;74868.81;;;-145.72;100.00
15914;BME280;8055;51.930;8.840;2023-03-23T09:00:25;74870.88;;;-145.72;100.00
15914;BME280;8055;51.930;8.840;2023-03-23T09:02:53;74868.81;;;-145.72;100.00
15914;BME280;8055;51.930;8.840;2023-03-23T09:05:21;74870.88;;;-145.72;100.00
15914;BME280;8055;51.930;8.840;2023-03-23T09:07:50;74843.97;;;-145.72;100.00
15914;BME280;8055;51.930;8.840;2023-03-23T09:10:17;74862.59;;;-145.72;100.00
15914;BME280;8055;51.930;8.840;2023-03-23T09:12:43;74875.00;;;-145.72;100.00
15914;BME280;8055;51.930;8.840;2023-03-23T09:15:11;74864.66;;;-145.72;100.00
15914;BME280;8055;51.930;8.840;2023-03-23T09:17:49;74872.94;;;-145.72;100.00
15914;BME280;8055;51.930;8.840;2023-03-23T09:20:18;74883.28;;;-145.72;100.00
15914;BME280;8055;51.930;8.840;2023-03-23T09:22:47;74879.16;;;-145.72;100.00
15914;BME280;8055;51.930;8.840;2023-03-23T09:25:15;74864.66;;;-145.72;100.00
15914;BME280;8055;51.930;8.840;2023-03-23T09:27:42;74870.88;;;-145.72;100.00
15914;BME280;8055;51.930;8.840;2023-03-23T09:30:12;74872.94;;;-145.72;100.00
15914;BME280;8055;51.930;8.840;2023-03-23T09:32:39;74875.00;;;-145.72;100.00
15914;BME280;8055;51.930;8.840;2023-03-23T09:35:07;74885.34;;;-145.72;100.00
15914;BME280;8055;51.930;8.840;2023-03-23T09:37:39;74887.44;;;-145.72;100.00
15914;BME280;8055;51.930;8.840;2023-03-23T09:40:07;74889.50;;;-145.72;100.00
15914;BME280;8055;51.930;8.840;2023-03-23T09:42:44;74875.00;;;-145.72;100.00
15914;BME280;8055;51.930;8.840;2023-03-23T09:45:41;74889.50;;;-145.72;100.00
15914;BME280;8055;51.930;8.840;2023-03-23T09:54:10;74916.38;;;-145.72;100.00
15914;BME280;8055;51.930;8.840;2023-03-23T09:56:38;74906.03;;;-145.72;100.00
15914;BME280;8055;51.930;8.840;2023-03-23T09:59:24;74908.13;;;-145.72;100.00
15914;BME280;8055;51.930;8.840;2023-03-23T10:01:53;74901.91;;;-145.72;100.00
15914;BME280;8055;51.930;8.840;2023-03-23T10:06:49;74912.25;;;-145.72;100.00
15914;BME280;8055;51.930;8.840;2023-03-23T10:09:17;74914.31;;;-145.72;100.00
15914;BME280;8055;51.930;8.840;2023-03-23T10:19:39;74885.34;;;-145.72;100.00
15914;BME280;8055;51.930;8.840;2023-03-23T10:22:12;74881.22;;;-145.72;100.00
15914;BME280;8055;51.930;8.840;2023-03-23T10:30:40;74856.41;;;-145.72;100.00
15914;BME280;8055;51.930;8.840;2023-03-23T10:36:20;74819.16;;;-145.72;100.00
15914;BME280;8055;51.930;8.840;2023-03-23T10:38:56;74788.13;;;-145.72;100.00
15914;BME280;8055;51.930;8.840;2023-03-23T10:41:23;74777.78;;;-145.72;100.00
15914;BME280;8055;51.930;8.840;2023-03-23T10:43:48;74757.09;;;-145.72;100.00
15914;BME280;8055;51.930;8.840;2023-03-23T10:49:01;74728.13;;;-145.72;100.00
15914;BME280;8055;51.930;8.840;2023-03-23T10:51:35;74734.34;;;-145.72;100.00
15914;BME280;8055;51.930;8.840;2023-03-23T10:54:02;74717.78;;;-145.72;100.00
15914;BME280;8055;51.930;8.840;2023-03-23T10:56:40;74719.88;;;-145.72;100.00
15914;BME280;8055;51.930;8.840;2023-03-23T10:59:15;74734.34;;;-145.72;100.00
15914;BME280;8055;51.930;8.840;2023-03-23T11:01:44;74736.41;;;-145.72;100.00
15914;BME280;8055;51.930;8.840;2023-03-23T11:04:15;74752.97;;;-145.72;100.00
15914;BME280;8055;51.930;8.840;2023-03-23T11:06:46;74767.44;;;-145.72;100.00
15914;BME280;8055;51.930;8.840;2023-03-23T11:09:15;74781.91;;;-145.72;100.00
15914;BME280;8055;51.930;8.840;2023-03-23T11:11:54;74788.13;;;-145.72;100.00
15914;BME280;8055;51.930;8.840;2023-03-23T11:14:24;74792.25;;;-145.72;100.00
15914;BME280;8055;51.930;8.840;2023-03-23T11:16:55;74810.88;;;-145.72;100.00
15914;BME280;8055;51.930;8.840;2023-03-23T11:19:24;74823.28;;;-145.72;100.00
15914;BME280;8055;51.930;8.840;2023-03-23T11:22:05;74806.75;;;-145.72;100.00
15914;BME280;8055;51.930;8.840;2023-03-23T11:24:40;74815.03;;;-145.72;100.00
15914;BME280;8055;51.930;8.840;2023-03-23T11:27:07;74831.56;;;-145.72;100.00
15914;BME280;8055;51.930;8.840;2023-03-23T11:29:35;74831.56;;;-145.72;100.00
15914;BME280;8055;51.930;8.840;2023-03-23T11:32:08;74837.78;;;-145.72;100.00
15914;BME280;8055;51.930;8.840;2023-03-23T11:34:43;74843.97;;;-145.72;100.00
15914;BME280;8055;51.930;8.840;2023-03-23T11:37:13;74843.97;;;-145.72;100.00
15914;BME280;8055;51.930;8.840;2023-03-23T11:39:58;74860.53;;;-145.72;100.00
15914;BME280;8055;51.930;8.840;2023-03-23T11:42:37;74875.00;;;-145.72;100.00
15914;BME280;8055;51.930;8.840;2023-03-23T11:48:00;74986.72;;;-145.72;100.00
15914;BME280;8055;51.930;8.840;2023-03-23T11:50:44;75055.00;;;-145.72;100.00
15914;BME280;8055;51.930;8.840;2023-03-23T11:58:17;75224.66;;;-145.72;100.00
15914;BME280;8055;51.930;8.840;2023-03-23T12:00:46;75212.25;;;-145.72;100.00
15914;BME280;8055;51.930;8.840;2023-03-23T12:03:13;75261.91;;;-145.72;100.00
15914;BME280;8055;51.930;8.840;2023-03-23T12:14:14;75274.31;;;-145.72;100.00
15914;BME280;8055;51.930;8.840;2023-03-23T12:16:50;75270.16;;;-145.72;100.00
15914;BME280;8055;51.930;8.840;2023-03-23T12:22:32;75268.09;;;-145.72;100.00
15914;BME280;8055;51.930;8.840;2023-03-23T12:28:16;75257.75;;;-145.72;100.00
15914;BME280;8055;51.930;8.840;2023-03-23T12:31:14;75272.25;;;-145.72;100.00
15914;BME280;8055;51.930;8.840;2023-03-23T12:34:05;75278.44;;;-145.72;100.00
15914;BME280;8055;51.930;8.840;2023-03-23T12:37:01;75278.44;;;-145.72;100.00
15914;BME280;8055;51.930;8.840;2023-03-23T12:42:16;75272.25;;;-145.72;100.00
15914;BME280;8055;51.930;8.840;2023-03-23T12:44:52;75253.63;;;-145.72;100.00
15914;BME280;8055;51.930;8.840;2023-03-23T12:49:54;75247.41;;;-145.72;100.00
15914;BME280;8055;51.930;8.840;2023-03-23T12:52:27;75257.75;;;-145.72;100.00
15914;BME280;8055;51.930;8.840;2023-03-23T13:02:42;75261.91;;;-145.72;100.00
15914;BME280;8055;51.930;8.840;2023-03-23T13:05:28;75253.63;;;-145.72;100.00
15914;BME280;8055;51.930;8.840;2023-03-23T13:08:04;75255.69;;;-145.72;100.00
15914;BME280;8055;51.930;8.840;2023-03-23T13:10:42;75249.47;;;-145.72;100.00
15914;BME280;8055;51.930;8.840;2023-03-23T13:13:23;75251.56;;;-145.72;100.00
15914;BME280;8055;51.930;8.840;2023-03-23T13:18:41;75263.97;;;-145.72;100.00
15914;BME280;8055;51.930;8.840;2023-03-23T13:21:28;75249.47;;;-145.72;100.00
15914;BME280;8055;51.930;8.840;2023-03-23T13:24:06;75235.00;;;-145.72;100.00
15914;BME280;8055;51.930;8.840;2023-03-23T13:26:40;75245.34;;;-145.72;100.00
15914;BME280;8055;51.930;8.840;2023-03-23T13:29:17;75247.41;;;-145.72;100.00
15914;BME280;8055;51.930;8.840;2023-03-23T13:31:47;75266.03;;;-145.72;100.00
15914;BME280;8055;51.930;8.840;2023-03-23T13:34:25;75249.47;;;-145.72;100.00
15914;BME280;8055;51.930;8.840;2023-03-23T13:37:05;75257.75;;;-145.72;100.00
15914;BME280;8055;51.930;8.840;2023-03-23T13:39:36;75251.56;;;-145.72;100.00
15914;BME280;8055;51.930;8.840;2023-03-23T13:50:29;75286.72;;;-145.72;100.00
15914;BME280;8055;51.930;8.840;2023-03-23T14:05:40;75297.06;;;-145.72;100.00
15914;BME280;8055;51.930;8.840;2023-03-23T14:08:11;75286.72;;;-145.72;100.00
15914;BME280;8055;51.930;8.840;2023-03-23T14:10:38;75266.03;;;-145.72;100.00
15914;BME280;8055;51.930;8.840;2023-03-23T14:13:06;75257.75;;;-145.72;100.00
15914;BME280;8055;51.930;8.840;2023-03-23T14:15:45;75251.56;;;-145.72;100.00
15914;BME280;8055;51.930;8.840;2023-03-23T14:18:19;75255.69;;;-145.72;100.00
15914;BME280;8055;51.930;8.840;2023-03-23T14:20:46;75245.34;;;-145.72;100.00
15914;BME280;8055;51.930;8.840;2023-03-23T14:23:17;75235.00;;;-145.72;100.00
15914;BME280;8055;51.930;8.840;2023-03-23T14:25:43;75222.59;;;-145.72;100.00
15914;BME280;8055;51.930;8.840;2023-03-23T14:28:19;75230.84;;;-145.72;100.00
15914;BME280;8055;51.930;8.840;2023-03-23T14:30:47;75239.13;;;-145.72;100.00
15914;BME280;8055;51.930;8.840;2023-03-23T14:33:13;75243.28;;;-145.72;100.00